sensor_id;sensor_type;location;lat;lon;timestamp;pressure;altitude;pressure_sealevel;temperature;humidity
61537;BME280;48695;53.480;-6.300;2023-04-06T00:00:49;100775.00;;;13.27;64.06
61537;BME280;48695;53.480;-6.300;2023-04-06T00:03:14;100771.59;;;13.24;64.44
61537;BME280;48695;53.480;-6.300;2023-04-06T00:05:40;100751.72;;;13.16;64.44
61537;BME280;48695;53.480;-6.300;2023-04-06T00:08:06;100760.31;;;13.21;64.48
61537;BME280;48695;53.480;-6.300;2023-04-06T00:10:31;100759.53;;;13.17;63.95
61537;BME280;48695;53.480;-6.300;2023-04-06T00:12:58;100763.94;;;13.17;63.62
61537;BME280;48695;53.480;-6.300;2023-04-06T00:15:24;100741.69;;;13.02;63.45
61537;BME280;48695;53.480;-6.300;2023-04-06T00:17:49;100764.19;;;13.09;62.88
61537;BME280;48695;53.480;-6.300;2023-04-06T00:20:15;100765.19;;;13.05;62.27
61537;BME280;48695;53.480;-6.300;2023-04-06T00:22:41;100769.72;;;13.00;62.79
61537;BME280;48695;53.480;-6.300;2023-04-06T00:25:07;100770.78;;;12.94;63.09
61537;BME280;48695;53.480;-6.300;2023-04-06T00:27:32;100760.44;;;12.90;63.94
61537;BME280;48695;53.480;-6.300;2023-04-06T00:29:58;100764.06;;;12.86;64.00
61537;BME280;48695;53.480;-6.300;2023-04-06T00:32:23;100765.97;;;12.81;63.93
61537;BME280;48695;53.480;-6.300;2023-04-06T00:34:48;100763.47;;;12.76;64.23
61537;BME280;48695;53.480;-6.300;2023-04-06T00:37:14;100773.22;;;12.72;64.11
61537;BME280;48695;53.480;-6.300;2023-04-06T00:39:39;100766.34;;;12.68;64.32
61537;BME280;48695;53.480;-6.300;2023-04-06T00:42:11;100746.31;;;12.66;64.43
61537;BME280;48695;53.480;-6.300;2023-04-06T00:44:41;100746.47;;;12.61;65.23
61537;BME280;48695;53.480;-6.300;2023-04-06T00:47:07;100739.69;;;12.54;65.22
61537;BME280;48695;53.480;-6.300;2023-04-06T00:49:33;100744.03;;;12.55;65.41
61537;BME280;48695;53.480;-6.300;2023-04-06T00:51:59;100742.31;;;12.54;65.40
61537;BME280;48695;53.480;-6.300;2023-04-06T00:54:25;100747.63;;;12.51;65.93
61537;BME280;48695;53.480;-6.300;2023-04-06T00:56:50;100760.72;;;12.51;65.12
61537;BME280;48695;53.480;-6.300;2023-04-06T00:59:16;100765.16;;;12.49;64.88
61537;BME280;48695;53.480;-6.300;2023-04-06T01:01:41;100764.38;;;12.47;64.16
61537;BME280;48695;53.480;-6.300;2023-04-06T01:04:07;100766.16;;;12.45;63.82
61537;BME280;48695;53.480;-6.300;2023-04-06T01:06:32;100760.19;;;12.40;63.32
61537;BME280;48695;53.480;-6.300;2023-04-06T01:08:57;100734.47;;;12.25;63.21
61537;BME280;48695;53.480;-6.300;2023-04-06T01:11:23;100756.91;;;12.33;63.28
61537;BME280;48695;53.480;-6.300;2023-04-06T01:13:48;100755.31;;;12.28;63.22
61537;BME280;48695;53.480;-6.300;2023-04-06T01:16:14;100753.63;;;12.27;63.30
61537;BME280;48695;53.480;-6.300;2023-04-06T01:18:39;100760.63;;;12.25;63.05
61537;BME280;48695;53.480;-6.300;2023-04-06T01:21:05;100745.19;;;12.15;62.98
61537;BME280;48695;53.480;-6.300;2023-04-06T01:23:33;100754.69;;;12.19;63.04
61537;BME280;48695;53.480;-6.300;2023-04-06T01:25:59;100758.19;;;12.18;63.06
61537;BME280;48695;53.480;-6.300;2023-04-06T01:28:24;100755.66;;;12.15;62.98
61537;BME280;48695;53.480;-6.300;2023-04-06T01:30:50;100749.56;;;12.15;63.19
61537;BME280;48695;53.480;-6.300;2023-04-06T01:33:16;100747.00;;;12.13;63.43
61537;BME280;48695;53.480;-6.300;2023-04-06T01:35:41;100753.16;;;12.12;63.89
61537;BME280;48695;53.480;-6.300;2023-04-06T01:38:06;100747.06;;;12.10;63.60
61537;BME280;48695;53.480;-6.300;2023-04-06T01:40:32;100735.84;;;12.07;63.83
61537;BME280;48695;53.480;-6.300;2023-04-06T01:42:57;100737.47;;;12.11;63.74
61537;BME280;48695;53.480;-6.300;2023-04-06T01:45:23;100722.72;;;12.08;63.97
61537;BME280;48695;53.480;-6.300;2023-04-06T01:47:48;100729.66;;;12.09;64.26
61537;BME280;48695;53.480;-6.300;2023-04-06T01:50:14;100727.94;;;12.08;64.41
61537;BME280;48695;53.480;-6.300;2023-04-06T01:52:40;100721.09;;;12.04;64.52
61537;BME280;48695;53.480;-6.300;2023-04-06T01:55:06;100731.38;;;12.10;64.12
61537;BME280;48695;53.480;-6.300;2023-04-06T01:57:32;100727.00;;;12.11;64.01
61537;BME280;48695;53.480;-6.300;2023-04-06T01:59:57;100734.00;;;12.10;63.70
61537;BME280;48695;53.480;-6.300;2023-04-06T02:02:22;100724.44;;;12.09;63.54
61537;BME280;48695;53.480;-6.300;2023-04-06T02:04:48;100727.94;;;12.08;63.60
61537;BME280;48695;53.480;-6.300;2023-04-06T02:07:13;100736.72;;;12.07;63.95
61537;BME280;48695;53.480;-6.300;2023-04-06T02:09:39;100740.22;;;12.06;63.50
61537;BME280;48695;53.480;-6.300;2023-04-06T02:12:04;100744.59;;;12.06;63.56
61537;BME280;48695;53.480;-6.300;2023-04-06T02:14:30;100741.16;;;12.04;63.90
61537;BME280;48695;53.480;-6.300;2023-04-06T02:16:55;100741.16;;;12.04;63.89
61537;BME280;48695;53.480;-6.300;2023-04-06T02:19:21;100735.13;;;12.02;63.31
61537;BME280;48695;53.480;-6.300;2023-04-06T02:21:47;100740.38;;;12.00;63.74
61537;BME280;48695;53.480;-6.300;2023-04-06T02:24:13;100736.09;;;11.98;63.49
61537;BME280;48695;53.480;-6.300;2023-04-06T02:26:38;100742.19;;;11.98;63.56
61537;BME280;48695;53.480;-6.300;2023-04-06T02:29:04;100735.31;;;11.94;63.32
61537;BME280;48695;53.480;-6.300;2023-04-06T02:31:29;100731.13;;;11.88;63.52
61537;BME280;48695;53.480;-6.300;2023-04-06T02:33:55;100733.63;;;11.93;63.48
61537;BME280;48695;53.480;-6.300;2023-04-06T02:36:20;100730.28;;;11.88;63.66
61537;BME280;48695;53.480;-6.300;2023-04-06T02:38:45;100737.22;;;11.89;64.00
61537;BME280;48695;53.480;-6.300;2023-04-06T02:41:11;100735.50;;;11.88;63.96
61537;BME280;48695;53.480;-6.300;2023-04-06T02:43:36;100736.41;;;11.87;63.65
61537;BME280;48695;53.480;-6.300;2023-04-06T02:46:02;100737.28;;;11.86;63.54
61537;BME280;48695;53.480;-6.300;2023-04-06T02:48:27;100732.16;;;11.83;63.84
61537;BME280;48695;53.480;-6.300;2023-04-06T02:50:52;100729.56;;;11.80;63.80
61537;BME280;48695;53.480;-6.300;2023-04-06T02:53:18;100733.91;;;11.81;63.77
61537;BME280;48695;53.480;-6.300;2023-04-06T02:55:43;100728.66;;;11.81;64.52
61537;BME280;48695;53.480;-6.300;2023-04-06T02:58:09;100730.44;;;11.80;64.43
61537;BME280;48695;53.480;-6.300;2023-04-06T03:00:34;100721.91;;;11.74;64.53
61537;BME280;48695;53.480;-6.300;2023-04-06T03:03:01;100731.34;;;11.79;64.88
61537;BME280;48695;53.480;-6.300;2023-04-06T03:05:26;100734.84;;;11.78;64.40
61537;BME280;48695;53.480;-6.300;2023-04-06T03:07:51;100735.72;;;11.79;64.26
61537;BME280;48695;53.480;-6.300;2023-04-06T03:10:17;100734.00;;;11.78;63.83
61537;BME280;48695;53.480;-6.300;2023-04-06T03:12:42;100716.66;;;11.74;64.19
61537;BME280;48695;53.480;-6.300;2023-04-06T03:15:08;100724.47;;;11.75;64.20
61537;BME280;48695;53.480;-6.300;2023-04-06T03:17:34;100724.59;;;11.70;64.05
61537;BME280;48695;53.480;-6.300;2023-04-06T03:20:00;100730.66;;;11.73;63.83
61537;BME280;48695;53.480;-6.300;2023-04-06T03:22:25;100728.09;;;11.71;63.56
61537;BME280;48695;53.480;-6.300;2023-04-06T03:24:51;100731.63;;;11.68;64.07
61537;BME280;48695;53.480;-6.300;2023-04-06T03:27:16;100728.16;;;11.68;63.48
61537;BME280;48695;53.480;-6.300;2023-04-06T03:29:42;100736.94;;;11.65;63.99
61537;BME280;48695;53.480;-6.300;2023-04-06T03:32:07;100730.91;;;11.63;63.45
61537;BME280;48695;53.480;-6.300;2023-04-06T03:34:32;100734.41;;;11.62;63.51
61537;BME280;48695;53.480;-6.300;2023-04-06T03:36:58;100736.19;;;11.60;63.31
61537;BME280;48695;53.480;-6.300;2023-04-06T03:39:23;100732.78;;;11.58;63.47
61537;BME280;48695;53.480;-6.300;2023-04-06T03:41:49;100707.09;;;11.40;63.26
61537;BME280;48695;53.480;-6.300;2023-04-06T03:44:14;100732.00;;;11.55;63.61
61537;BME280;48695;53.480;-6.300;2023-04-06T03:46:40;100722.66;;;11.46;63.22
61537;BME280;48695;53.480;-6.300;2023-04-06T03:49:05;100726.00;;;11.51;63.50
61537;BME280;48695;53.480;-6.300;2023-04-06T03:51:30;100726.91;;;11.49;63.35
61537;BME280;48695;53.480;-6.300;2023-04-06T03:53:56;100736.53;;;11.48;63.38
61537;BME280;48695;53.480;-6.300;2023-04-06T03:56:21;100736.59;;;11.45;62.97
61537;BME280;48695;53.480;-6.300;2023-04-06T03:58:47;100741.81;;;11.45;63.13
61537;BME280;48695;53.480;-6.300;2023-04-06T04:01:16;100745.34;;;11.44;63.21
61537;BME280;48695;53.480;-6.300;2023-04-06T04:03:42;100748.00;;;11.42;63.02
61537;BME280;48695;53.480;-6.300;2023-04-06T04:06:07;100747.22;;;11.39;63.39
61537;BME280;48695;53.480;-6.300;2023-04-06T04:08:33;100761.25;;;11.35;63.44
61537;BME280;48695;53.480;-6.300;2023-04-06T04:10:58;100742.31;;;11.27;63.21
61537;BME280;48695;53.480;-6.300;2023-04-06T04:13:24;100754.31;;;11.34;63.56
61537;BME280;48695;53.480;-6.300;2023-04-06T04:15:50;100741.28;;;11.32;64.06
61537;BME280;48695;53.480;-6.300;2023-04-06T04:18:15;100745.66;;;11.32;63.97
61537;BME280;48695;53.480;-6.300;2023-04-06T04:20:41;100726.03;;;11.15;64.08
61537;BME280;48695;53.480;-6.300;2023-04-06T04:23:06;100750.97;;;11.29;64.39
61537;BME280;48695;53.480;-6.300;2023-04-06T04:25:31;100750.09;;;11.28;64.60
61537;BME280;48695;53.480;-6.300;2023-04-06T04:27:57;100743.16;;;11.27;64.86
61537;BME280;48695;53.480;-6.300;2023-04-06T04:30:22;100744.94;;;11.25;64.64
61537;BME280;48695;53.480;-6.300;2023-04-06T04:32:48;100746.69;;;11.26;64.71
61537;BME280;48695;53.480;-6.300;2023-04-06T04:35:13;100744.03;;;11.28;64.96
61537;BME280;48695;53.480;-6.300;2023-04-06T04:37:40;100757.09;;;11.28;65.04
61537;BME280;48695;53.480;-6.300;2023-04-06T04:40:06;100751.00;;;11.27;65.03
61537;BME280;48695;53.480;-6.300;2023-04-06T04:42:32;100747.53;;;11.27;65.51
61537;BME280;48695;53.480;-6.300;2023-04-06T04:44:57;100758.00;;;11.27;65.05
61537;BME280;48695;53.480;-6.300;2023-04-06T04:47:23;100749.31;;;11.25;65.00
61537;BME280;48695;53.480;-6.300;2023-04-06T04:49:48;100761.50;;;11.26;65.21
61537;BME280;48695;53.480;-6.300;2023-04-06T04:52:14;100756.28;;;11.26;65.35
61537;BME280;48695;53.480;-6.300;2023-04-06T04:54:39;100764.13;;;11.26;65.05
61537;BME280;48695;53.480;-6.300;2023-04-06T04:57:06;100761.56;;;11.23;65.22
61537;BME280;48695;53.480;-6.300;2023-04-06T04:59:31;100762.38;;;11.25;65.30
61537;BME280;48695;53.480;-6.300;2023-04-06T05:01:57;100769.38;;;11.24;65.31
61537;BME280;48695;53.480;-6.300;2023-04-06T05:04:22;100768.50;;;11.24;64.91
61537;BME280;48695;53.480;-6.300;2023-04-06T05:06:48;100754.78;;;11.15;65.01
61537;BME280;48695;53.480;-6.300;2023-04-06T05:09:14;100768.59;;;11.21;64.64
61537;BME280;48695;53.480;-6.300;2023-04-06T05:11:40;100766.91;;;11.18;64.66
61537;BME280;48695;53.480;-6.300;2023-04-06T05:14:05;100768.72;;;11.14;64.87
61537;BME280;48695;53.480;-6.300;2023-04-06T05:16:32;100772.34;;;11.10;65.36
61537;BME280;48695;53.480;-6.300;2023-04-06T05:18:57;100777.63;;;11.07;64.46
61537;BME280;48695;53.480;-6.300;2023-04-06T05:21:23;100772.44;;;11.04;64.63
61537;BME280;48695;53.480;-6.300;2023-04-06T05:23:48;100776.06;;;11.00;64.79
61537;BME280;48695;53.480;-6.300;2023-04-06T05:26:14;100781.34;;;10.97;65.02
61537;BME280;48695;53.480;-6.300;2023-04-06T05:28:39;100777.03;;;10.96;64.94
61537;BME280;48695;53.480;-6.300;2023-04-06T05:31:05;100786.63;;;10.94;64.76
61537;BME280;48695;53.480;-6.300;2023-04-06T05:33:30;100792.75;;;10.93;64.78
61537;BME280;48695;53.480;-6.300;2023-04-06T05:35:56;100791.09;;;10.90;64.69
61537;BME280;48695;53.480;-6.300;2023-04-06T05:38:21;100791.94;;;10.89;65.00
61537;BME280;48695;53.480;-6.300;2023-04-06T05:40:47;100792.84;;;10.88;65.05
61537;BME280;48695;53.480;-6.300;2023-04-06T05:43:12;100794.59;;;10.88;64.51
61537;BME280;48695;53.480;-6.300;2023-04-06T05:45:37;100797.22;;;10.88;64.86
61537;BME280;48695;53.480;-6.300;2023-04-06T05:48:03;100797.22;;;10.88;64.90
61537;BME280;48695;53.480;-6.300;2023-04-06T05:50:28;100798.97;;;10.87;65.05
61537;BME280;48695;53.480;-6.300;2023-04-06T05:52:54;100799.94;;;10.83;64.84
61537;BME280;48695;53.480;-6.300;2023-04-06T05:55:19;100799.88;;;10.86;64.90
61537;BME280;48695;53.480;-6.300;2023-04-06T05:57:45;100803.34;;;10.87;65.15
61537;BME280;48695;53.480;-6.300;2023-04-06T06:00:11;100799.03;;;10.86;65.42
61537;BME280;48695;53.480;-6.300;2023-04-06T06:02:36;100809.47;;;10.86;65.31
61537;BME280;48695;53.480;-6.300;2023-04-06T06:05:02;100809.44;;;10.87;65.30
61537;BME280;48695;53.480;-6.300;2023-04-06T06:07:27;100811.19;;;10.87;65.60
61537;BME280;48695;53.480;-6.300;2023-04-06T06:09:56;100814.59;;;10.89;65.62
61537;BME280;48695;53.480;-6.300;2023-04-06T06:12:23;100814.59;;;10.89;65.67
61537;BME280;48695;53.480;-6.300;2023-04-06T06:14:48;100606.72;;;9.62;65.79
61537;BME280;48695;53.480;-6.300;2023-04-06T06:17:14;100815.47;;;10.89;65.96
61537;BME280;48695;53.480;-6.300;2023-04-06T06:19:40;100813.75;;;10.88;65.71
61537;BME280;48695;53.480;-6.300;2023-04-06T06:22:05;100818.97;;;10.88;65.84
61537;BME280;48695;53.480;-6.300;2023-04-06T06:24:31;100817.38;;;10.83;66.33
61537;BME280;48695;53.480;-6.300;2023-04-06T06:26:56;100827.69;;;10.89;66.32
61537;BME280;48695;53.480;-6.300;2023-04-06T06:29:22;100825.06;;;10.89;65.84
61537;BME280;48695;53.480;-6.300;2023-04-06T06:31:48;100827.69;;;10.89;65.92
61537;BME280;48695;53.480;-6.300;2023-04-06T06:34:14;100838.97;;;10.91;65.83
61537;BME280;48695;53.480;-6.300;2023-04-06T06:36:40;100838.13;;;10.90;65.83
61537;BME280;48695;53.480;-6.300;2023-04-06T06:39:05;100832.94;;;10.87;66.18
61537;BME280;48695;53.480;-6.300;2023-04-06T06:41:31;100841.53;;;10.93;66.23
61537;BME280;48695;53.480;-6.300;2023-04-06T06:43:56;100838.88;;;10.94;65.81
61537;BME280;48695;53.480;-6.300;2023-04-06T06:46:21;100844.09;;;10.94;66.06
61537;BME280;48695;53.480;-6.300;2023-04-06T06:48:47;100843.25;;;10.95;65.81
61537;BME280;48695;53.480;-6.300;2023-04-06T06:51:12;100843.25;;;10.95;65.81
61537;BME280;48695;53.480;-6.300;2023-04-06T06:53:38;100848.47;;;10.95;65.81
61537;BME280;48695;53.480;-6.300;2023-04-06T06:56:03;100858.91;;;10.95;65.80
61537;BME280;48695;53.480;-6.300;2023-04-06T06:58:29;100858.91;;;10.95;65.88
61537;BME280;48695;53.480;-6.300;2023-04-06T07:00:58;100852.78;;;10.96;65.76
61537;BME280;48695;53.480;-6.300;2023-04-06T07:03:23;100855.41;;;10.96;66.32
61537;BME280;48695;53.480;-6.300;2023-04-06T07:05:49;100858.03;;;10.96;66.30
61537;BME280;48695;53.480;-6.300;2023-04-06T07:08:21;100862.34;;;10.97;66.17
61537;BME280;48695;53.480;-6.300;2023-04-06T07:10:47;100864.00;;;11.00;65.88
61537;BME280;48695;53.480;-6.300;2023-04-06T07:13:14;100859.69;;;11.00;66.09
61537;BME280;48695;53.480;-6.300;2023-04-06T07:15:45;100871.84;;;11.01;66.48
61537;BME280;48695;53.480;-6.300;2023-04-06T07:18:11;100873.56;;;11.02;66.36
61537;BME280;48695;53.480;-6.300;2023-04-06T07:20:36;100866.63;;;11.01;65.80
61537;BME280;48695;53.480;-6.300;2023-04-06T07:23:02;100875.28;;;11.03;66.31
61537;BME280;48695;53.480;-6.300;2023-04-06T07:25:28;100870.03;;;11.03;66.17
61537;BME280;48695;53.480;-6.300;2023-04-06T07:27:53;100870.09;;;11.02;66.53
61537;BME280;48695;53.480;-6.300;2023-04-06T07:30:19;100881.34;;;11.05;66.17
61537;BME280;48695;53.480;-6.300;2023-04-06T07:32:44;100876.94;;;11.07;66.31
61537;BME280;48695;53.480;-6.300;2023-04-06T07:35:10;100886.47;;;11.08;66.58
61537;BME280;48695;53.480;-6.300;2023-04-06T07:37:35;100887.31;;;11.10;66.43
61537;BME280;48695;53.480;-6.300;2023-04-06T07:40:01;100882.00;;;11.13;66.47
61537;BME280;48695;53.480;-6.300;2023-04-06T07:42:26;100861.31;;;11.04;66.82
61537;BME280;48695;53.480;-6.300;2023-04-06T07:44:52;100878.38;;;11.21;66.96
61537;BME280;48695;53.480;-6.300;2023-04-06T07:47:17;100891.31;;;11.25;67.12
61537;BME280;48695;53.480;-6.300;2023-04-06T07:49:42;100882.53;;;11.29;66.73
61537;BME280;48695;53.480;-6.300;2023-04-06T07:52:08;100879.81;;;11.34;66.40
61537;BME280;48695;53.480;-6.300;2023-04-06T07:54:33;100886.69;;;11.38;66.64
61537;BME280;48695;53.480;-6.300;2023-04-06T07:56:59;100874.59;;;11.34;66.86
61537;BME280;48695;53.480;-6.300;2023-04-06T07:59:24;100891.72;;;11.47;66.58
61537;BME280;48695;53.480;-6.300;2023-04-06T08:01:50;100890.81;;;11.48;66.66
61537;BME280;48695;53.480;-6.300;2023-04-06T08:04:15;100893.31;;;11.53;66.67
61537;BME280;48695;53.480;-6.300;2023-04-06T08:06:40;100898.44;;;11.57;66.77
61537;BME280;48695;53.480;-6.300;2023-04-06T08:09:06;100875.94;;;11.50;66.96
61537;BME280;48695;53.480;-6.300;2023-04-06T08:11:31;100895.53;;;11.69;66.78
61537;BME280;48695;53.480;-6.300;2023-04-06T08:13:57;100897.94;;;11.79;66.82
61537;BME280;48695;53.480;-6.300;2023-04-06T08:16:23;100901.28;;;11.85;66.46
61537;BME280;48695;53.480;-6.300;2023-04-06T08:18:48;100897.66;;;11.91;66.74
61537;BME280;48695;53.480;-6.300;2023-04-06T08:21:14;100907.88;;;12.00;66.30
61537;BME280;48695;53.480;-6.300;2023-04-06T08:23:39;100899.00;;;12.06;66.19
61537;BME280;48695;53.480;-6.300;2023-04-06T08:26:05;100905.84;;;12.13;66.02
61537;BME280;48695;53.480;-6.300;2023-04-06T08:28:30;100908.28;;;12.19;66.19
61537;BME280;48695;53.480;-6.300;2023-04-06T08:30:56;100910.78;;;12.24;65.83
61537;BME280;48695;53.480;-6.300;2023-04-06T08:33:21;100922.81;;;12.31;65.72
61537;BME280;48695;53.480;-6.300;2023-04-06T08:35:47;100917.38;;;12.38;65.63
61537;BME280;48695;53.480;-6.300;2023-04-06T08:38:12;100875.94;;;12.22;65.80
61537;BME280;48695;53.480;-6.300;2023-04-06T08:40:39;100927.31;;;12.58;64.95
61537;BME280;48695;53.480;-6.300;2023-04-06T08:43:06;100919.22;;;12.67;64.89
61537;BME280;48695;53.480;-6.300;2023-04-06T08:45:34;100921.56;;;12.77;64.88
61537;BME280;48695;53.480;-6.300;2023-04-06T08:48:02;100916.16;;;12.83;64.80
61537;BME280;48695;53.480;-6.300;2023-04-06T08:50:28;100925.19;;;13.02;64.83
61537;BME280;48695;53.480;-6.300;2023-04-06T08:52:55;100934.69;;;13.06;64.48
61537;BME280;48695;53.480;-6.300;2023-04-06T08:55:21;100934.50;;;13.12;64.00
61537;BME280;48695;53.480;-6.300;2023-04-06T08:57:48;100947.41;;;13.20;63.46
61537;BME280;48695;53.480;-6.300;2023-04-06T09:00:14;100947.31;;;13.24;62.57
61537;BME280;48695;53.480;-6.300;2023-04-06T09:02:42;100920.31;;;13.19;62.75
61537;BME280;48695;53.480;-6.300;2023-04-06T09:05:08;100947.84;;;13.36;63.05
61537;BME280;48695;53.480;-6.300;2023-04-06T09:07:36;100952.81;;;13.45;63.20
61537;BME280;48695;53.480;-6.300;2023-04-06T09:10:03;100964.75;;;13.55;62.63
61537;BME280;48695;53.480;-6.300;2023-04-06T09:12:30;100966.06;;;13.68;62.42
61537;BME280;48695;53.480;-6.300;2023-04-06T09:14:57;100970.94;;;13.81;62.26
61537;BME280;48695;53.480;-6.300;2023-04-06T09:17:24;100967.06;;;13.92;61.77
61537;BME280;48695;53.480;-6.300;2023-04-06T09:19:50;100970.25;;;14.02;61.48
61537;BME280;48695;53.480;-6.300;2023-04-06T09:22:16;100964.59;;;14.14;61.28
61537;BME280;48695;53.480;-6.300;2023-04-06T09:24:52;100963.09;;;14.32;61.60
61537;BME280;48695;53.480;-6.300;2023-04-06T09:27:30;100976.63;;;14.46;61.78
61537;BME280;48695;53.480;-6.300;2023-04-06T09:30:09;100973.22;;;14.69;62.19
61537;BME280;48695;53.480;-6.300;2023-04-06T09:32:53;100974.19;;;14.92;61.58
61537;BME280;48695;53.480;-6.300;2023-04-06T09:35:19;100969.28;;;15.06;59.31
61537;BME280;48695;53.480;-6.300;2023-04-06T09:37:49;100976.13;;;15.34;58.77
61537;BME280;48695;53.480;-6.300;2023-04-06T09:40:15;100984.13;;;15.54;58.28
61537;BME280;48695;53.480;-6.300;2023-04-06T09:42:45;100988.47;;;15.78;57.87
61537;BME280;48695;53.480;-6.300;2023-04-06T09:45:12;100986.16;;;15.93;56.87
61537;BME280;48695;53.480;-6.300;2023-04-06T09:47:39;100990.78;;;16.08;56.81
61537;BME280;48695;53.480;-6.300;2023-04-06T09:50:07;100999.09;;;16.19;56.04
61537;BME280;48695;53.480;-6.300;2023-04-06T09:52:54;100995.16;;;16.29;57.54
61537;BME280;48695;53.480;-6.300;2023-04-06T09:55:33;101004.84;;;16.29;56.94
61537;BME280;48695;53.480;-6.300;2023-04-06T09:58:04;101003.25;;;16.25;55.24
61537;BME280;48695;53.480;-6.300;2023-04-06T10:00:32;101000.31;;;16.32;55.95
61537;BME280;48695;53.480;-6.300;2023-04-06T10:08:11;101010.16;;;17.10;57.58
61537;BME280;48695;53.480;-6.300;2023-04-06T10:10:38;101019.53;;;17.36;54.75
61537;BME280;48695;53.480;-6.300;2023-04-06T10:13:04;101016.81;;;17.57;53.44
61537;BME280;48695;53.480;-6.300;2023-04-06T10:15:31;101016.97;;;17.73;51.71
61537;BME280;48695;53.480;-6.300;2023-04-06T10:18:00;101018.13;;;17.86;51.42
61537;BME280;48695;53.480;-6.300;2023-04-06T10:20:49;101020.47;;;17.92;53.35
61537;BME280;48695;53.480;-6.300;2023-04-06T10:23:31;101026.66;;;18.10;54.34
61537;BME280;48695;53.480;-6.300;2023-04-06T10:25:59;101012.81;;;18.22;51.77
61537;BME280;48695;53.480;-6.300;2023-04-06T10:28:29;101024.81;;;18.47;48.55
61537;BME280;48695;53.480;-6.300;2023-04-06T10:31:00;101025.75;;;18.63;50.01
61537;BME280;48695;53.480;-6.300;2023-04-06T10:33:27;101029.56;;;18.57;48.53
61537;BME280;48695;53.480;-6.300;2023-04-06T10:35:52;101004.88;;;18.39;49.28
61537;BME280;48695;53.480;-6.300;2023-04-06T10:38:19;101026.69;;;18.62;51.08
61537;BME280;48695;53.480;-6.300;2023-04-06T10:40:47;101031.22;;;18.77;49.19
61537;BME280;48695;53.480;-6.300;2023-04-06T10:43:21;101039.75;;;19.00;49.92
61537;BME280;48695;53.480;-6.300;2023-04-06T10:45:59;101027.94;;;19.07;50.23
61537;BME280;48695;53.480;-6.300;2023-04-06T10:48:36;101032.09;;;19.11;49.34
61537;BME280;48695;53.480;-6.300;2023-04-06T10:51:06;101034.44;;;19.17;52.98
61537;BME280;48695;53.480;-6.300;2023-04-06T10:53:33;101051.13;;;19.02;47.11
61537;BME280;48695;53.480;-6.300;2023-04-06T10:55:58;101042.88;;;18.90;47.18
61537;BME280;48695;53.480;-6.300;2023-04-06T10:58:26;101043.53;;;18.78;46.73
61537;BME280;48695;53.480;-6.300;2023-04-06T11:00:53;101044.13;;;18.66;47.10
61537;BME280;48695;53.480;-6.300;2023-04-06T11:03:19;101039.91;;;18.62;47.06
61537;BME280;48695;53.480;-6.300;2023-04-06T11:05:46;101049.28;;;18.69;47.73
61537;BME280;48695;53.480;-6.300;2023-04-06T11:08:25;101048.00;;;18.93;49.15
61537;BME280;48695;53.480;-6.300;2023-04-06T11:10:50;101046.13;;;19.13;48.48
61537;BME280;48695;53.480;-6.300;2023-04-06T11:13:16;101053.63;;;19.54;46.61
61537;BME280;48695;53.480;-6.300;2023-04-06T11:15:42;101042.22;;;19.85;45.97
61537;BME280;48695;53.480;-6.300;2023-04-06T11:18:07;101051.78;;;20.19;46.28
61537;BME280;48695;53.480;-6.300;2023-04-06T11:20:33;101055.09;;;20.54;44.21
61537;BME280;48695;53.480;-6.300;2023-04-06T11:22:58;101065.50;;;20.87;45.80
61537;BME280;48695;53.480;-6.300;2023-04-06T11:25:25;101059.94;;;21.20;44.53
61537;BME280;48695;53.480;-6.300;2023-04-06T11:27:52;101067.84;;;21.50;42.66
61537;BME280;48695;53.480;-6.300;2023-04-06T11:30:18;101066.59;;;21.70;41.41
61537;BME280;48695;53.480;-6.300;2023-04-06T11:32:45;101072.94;;;21.82;41.72
61537;BME280;48695;53.480;-6.300;2023-04-06T11:35:21;101063.97;;;21.97;45.24
61537;BME280;48695;53.480;-6.300;2023-04-06T11:37:50;101063.16;;;22.10;41.63
61537;BME280;48695;53.480;-6.300;2023-04-06T11:40:23;101059.47;;;22.39;43.31
61537;BME280;48695;53.480;-6.300;2023-04-06T11:42:56;101061.06;;;22.69;43.11
61537;BME280;48695;53.480;-6.300;2023-04-06T11:45:22;101065.69;;;22.92;41.06
61537;BME280;48695;53.480;-6.300;2023-04-06T11:47:59;101065.38;;;23.35;43.86
61537;BME280;48695;53.480;-6.300;2023-04-06T11:50:31;101058.75;;;23.41;39.32
61537;BME280;48695;53.480;-6.300;2023-04-06T11:53:00;101069.28;;;23.55;38.40
61537;BME280;48695;53.480;-6.300;2023-04-06T11:55:27;101070.59;;;23.49;38.06
61537;BME280;48695;53.480;-6.300;2023-04-06T11:57:52;101069.94;;;23.59;38.10
61537;BME280;48695;53.480;-6.300;2023-04-06T12:00:18;101055.13;;;23.67;37.71
61537;BME280;48695;53.480;-6.300;2023-04-06T12:02:48;101065.66;;;24.05;37.94
61537;BME280;48695;53.480;-6.300;2023-04-06T12:05:13;101077.19;;;24.30;36.30
61537;BME280;48695;53.480;-6.300;2023-04-06T12:07:39;101080.28;;;24.61;37.72
61537;BME280;48695;53.480;-6.300;2023-04-06T12:10:05;101075.47;;;24.88;36.83
61537;BME280;48695;53.480;-6.300;2023-04-06T12:12:30;101074.09;;;25.06;35.84
61537;BME280;48695;53.480;-6.300;2023-04-06T12:14:57;101071.69;;;25.15;34.53
61537;BME280;48695;53.480;-6.300;2023-04-06T12:17:22;101076.78;;;25.18;33.59
61537;BME280;48695;53.480;-6.300;2023-04-06T12:19:48;101089.25;;;25.06;34.20
61537;BME280;48695;53.480;-6.300;2023-04-06T12:22:14;101077.44;;;24.86;33.57
61537;BME280;48695;53.480;-6.300;2023-04-06T12:24:39;101083.59;;;24.75;34.46
61537;BME280;48695;53.480;-6.300;2023-04-06T12:27:05;101065.22;;;24.59;33.95
61537;BME280;48695;53.480;-6.300;2023-04-06T12:29:30;101063.06;;;24.65;32.34
61537;BME280;48695;53.480;-6.300;2023-04-06T12:31:56;101084.25;;;24.90;34.19
61537;BME280;48695;53.480;-6.300;2023-04-06T12:34:21;101079.66;;;25.03;34.03
61537;BME280;48695;53.480;-6.300;2023-04-06T12:36:47;101082.53;;;25.24;34.41
61537;BME280;48695;53.480;-6.300;2023-04-06T12:39:12;101081.19;;;25.52;33.77
61537;BME280;48695;53.480;-6.300;2023-04-06T12:41:38;101079.25;;;25.77;32.79